Time;durP1;ratioP1;P1;durP2;ratioP2;P2;SDS_P1;SDS_P2;PMS_P1;PMS_P2;Temp;Humidity;BMP_temperature;BMP_pressure;BME280_temperature;BME280_humidity;BME280_pressure;Samples;Min_cycle;Max_cycle;Signal;HPM_P1;HPM_P2
2023/12/17 00:00:52;;;;;;;23.13;21.23;;;1.00;99.90;;;;;;5090853;28;20471;-78
2023/12/17 00:03:19;;;;;;;23.03;21.13;;;1.00;99.90;;;;;;5092382;28;20438;-78
2023/12/17 00:05:46;;;;;;;24.17;22.20;;;1.00;99.90;;;;;;5090855;28;20964;-78
2023/12/17 00:08:13;;;;;;;23.50;21.43;;;1.00;99.90;;;;;;5090682;28;20451;-78
2023/12/17 00:10:39;;;;;;;22.87;20.97;;;1.00;99.90;;;;;;5090541;28;20484;-78
2023/12/17 00:13:07;;;;;;;23.47;21.27;;;1.10;99.90;;;;;;5092563;28;20467;-77
2023/12/17 00:15:35;;;;;;;23.93;21.83;;;1.00;99.90;;;;;;5092460;28;20445;-78
2023/12/17 00:18:02;;;;;;;30.03;27.03;;;1.00;99.90;;;;;;5092187;28;20451;-78
2023/12/17 00:20:29;;;;;;;25.37;23.00;;;0.90;99.90;;;;;;5091859;28;20472;-78
2023/12/17 00:22:56;;;;;;;24.90;22.50;;;0.90;99.90;;;;;;5092140;28;21032;-78
2023/12/17 00:25:23;;;;;;;24.23;22.10;;;0.90;99.90;;;;;;5092018;28;20470;-78
2023/12/17 00:27:50;;;;;;;23.33;21.27;;;0.90;99.90;;;;;;5090835;28;20477;-78
2023/12/17 00:30:16;;;;;;;25.07;22.80;;;0.90;99.90;;;;;;5090524;28;20888;-78
2023/12/17 00:32:44;;;;;;;23.87;21.70;;;0.80;99.90;;;;;;5123419;27;20499;-78
2023/12/17 00:35:11;;;;;;;24.53;22.23;;;0.80;99.90;;;;;;5090847;28;20451;-78
2023/12/17 00:37:38;;;;;;;24.17;22.07;;;0.80;99.90;;;;;;5083737;28;20469;-78
2023/12/17 00:40:06;;;;;;;24.13;22.07;;;0.80;99.90;;;;;;5091253;28;20988;-78
2023/12/17 00:42:33;;;;;;;24.37;22.17;;;0.70;99.90;;;;;;5092185;28;20440;-78
2023/12/17 00:45:00;;;;;;;24.10;21.97;;;0.70;99.90;;;;;;5090791;28;20482;-78
2023/12/17 00:47:27;;;;;;;24.43;22.27;;;0.70;99.90;;;;;;5092098;28;20430;-78
2023/12/17 00:49:55;;;;;;;23.57;21.67;;;0.60;99.90;;;;;;5091557;28;20559;-78
2023/12/17 00:52:22;;;;;;;23.47;21.47;;;0.60;99.90;;;;;;5091797;28;20562;-78
2023/12/17 00:54:49;;;;;;;23.03;21.03;;;0.60;99.90;;;;;;5090407;28;20440;-78
2023/12/17 00:57:16;;;;;;;23.57;21.67;;;0.60;99.90;;;;;;5121055;28;20454;-78
2023/12/17 00:59:43;;;;;;;23.63;21.43;;;0.60;99.90;;;;;;5090266;28;20553;-78
2023/12/17 01:02:10;;;;;;;22.80;20.87;;;0.60;99.90;;;;;;5090504;28;20448;-78
2023/12/17 01:04:37;;;;;;;22.20;20.37;;;0.60;99.90;;;;;;5092022;28;21219;-78
2023/12/17 01:07:05;;;;;;;23.17;21.00;;;0.60;99.90;;;;;;5090485;28;21073;-78
2023/12/17 01:09:32;;;;;;;23.47;21.47;;;0.60;99.90;;;;;;5090968;28;20465;-78
2023/12/17 01:12:02;;;;;;;22.97;21.07;;;0.60;99.90;;;;;;5093746;28;20495;-78
2023/12/17 01:14:32;;;;;;;24.37;22.17;;;0.60;99.90;;;;;;5095798;28;20449;-78
2023/12/17 01:16:59;;;;;;;24.50;22.30;;;0.60;99.90;;;;;;5094538;28;20453;-78
2023/12/17 01:19:26;;;;;;;23.13;21.13;;;0.60;99.90;;;;;;5095407;28;20492;-78
2023/12/17 01:21:52;;;;;;;23.97;21.73;;;0.50;99.90;;;;;;5094238;28;20822;-78
2023/12/17 01:24:20;;;;;;;24.50;22.40;;;0.50;99.90;;;;;;5093948;28;20495;-78
2023/12/17 01:26:47;;;;;;;25.60;23.23;;;0.50;99.90;;;;;;5094214;28;20525;-78
2023/12/17 01:29:14;;;;;;;25.20;22.97;;;0.40;99.90;;;;;;5095189;28;20511;-78
2023/12/17 01:31:41;;;;;;;25.83;23.27;;;0.40;99.90;;;;;;5094148;28;21012;-78
2023/12/17 01:34:08;;;;;;;25.10;22.97;;;0.40;99.90;;;;;;5094441;28;20964;-78
2023/12/17 01:36:34;;;;;;;25.37;22.63;;;0.40;99.90;;;;;;5093977;28;20451;-78
2023/12/17 01:39:01;;;;;;;26.00;23.47;;;0.40;99.90;;;;;;5093759;28;20463;-78
2023/12/17 01:41:29;;;;;;;24.77;22.77;;;0.40;99.90;;;;;;5095224;28;20432;-78
2023/12/17 01:43:56;;;;;;;25.83;23.40;;;0.40;99.90;;;;;;5094307;28;20516;-78
2023/12/17 01:46:23;;;;;;;25.03;22.83;;;0.40;99.90;;;;;;5094027;28;20450;-77
2023/12/17 01:48:50;;;;;;;24.40;22.10;;;0.40;99.90;;;;;;5094904;28;20819;-78
2023/12/17 01:51:18;;;;;;;24.77;22.33;;;0.40;99.90;;;;;;5093847;28;20827;-78
2023/12/17 01:53:44;;;;;;;25.87;23.57;;;0.40;99.90;;;;;;5093608;28;20862;-78
2023/12/17 01:56:13;;;;;;;25.10;22.70;;;0.50;99.90;;;;;;5115967;27;20829;-78
2023/12/17 01:58:44;;;;;;;25.40;23.10;;;0.40;99.90;;;;;;5094941;28;20442;-78
2023/12/17 02:01:11;;;;;;;24.83;22.53;;;0.40;99.90;;;;;;5095230;28;20432;-78
2023/12/17 02:03:38;;;;;;;25.10;22.63;;;0.40;99.90;;;;;;5095132;28;20929;-78
2023/12/17 02:06:06;;;;;;;25.00;22.87;;;0.40;99.90;;;;;;5094751;28;20937;-78
2023/12/17 02:08:33;;;;;;;25.33;23.03;;;0.40;99.90;;;;;;5093852;28;20505;-78
2023/12/17 02:11:00;;;;;;;25.80;23.37;;;0.40;99.90;;;;;;5094385;28;20446;-78
2023/12/17 02:13:27;;;;;;;23.73;21.73;;;0.40;99.90;;;;;;5116051;27;20453;-78
2023/12/17 02:15:55;;;;;;;24.17;21.90;;;0.40;99.90;;;;;;5093345;28;20447;-78
2023/12/17 02:18:21;;;;;;;25.03;22.57;;;0.40;99.90;;;;;;5094573;28;20455;-78
2023/12/17 02:20:49;;;;;;;24.23;21.97;;;0.40;99.90;;;;;;5093507;28;20456;-78
2023/12/17 02:23:18;;;;;;;25.53;23.23;;;0.40;99.90;;;;;;5092908;28;20967;-78
2023/12/17 02:25:45;;;;;;;24.17;22.07;;;0.40;99.90;;;;;;5093161;28;20447;-78
2023/12/17 02:28:12;;;;;;;24.47;22.37;;;0.40;99.90;;;;;;5094388;28;20500;-78
2023/12/17 02:30:39;;;;;;;24.83;22.70;;;0.30;99.90;;;;;;5092663;28;20466;-78
2023/12/17 02:33:05;;;;;;;25.17;22.90;;;0.30;99.90;;;;;;5092961;28;20469;-78
2023/12/17 02:35:32;;;;;;;24.87;22.67;;;0.30;99.90;;;;;;5092789;28;20473;-78
2023/12/17 02:37:59;;;;;;;23.97;21.77;;;0.20;99.90;;;;;;5094194;28;20486;-78
2023/12/17 02:40:27;;;;;;;23.33;21.23;;;0.20;99.90;;;;;;5092024;28;20494;-78
2023/12/17 02:42:54;;;;;;;23.10;21.20;;;0.20;99.90;;;;;;5127235;27;20447;-78
2023/12/17 02:45:21;;;;;;;22.00;20.23;;;0.20;99.90;;;;;;5110921;27;20456;-78
2023/12/17 02:47:48;;;;;;;23.60;21.60;;;0.20;99.90;;;;;;5093532;28;20480;-78
2023/12/17 02:50:14;;;;;;;23.73;21.73;;;0.20;99.90;;;;;;5093449;28;20474;-78
2023/12/17 02:52:41;;;;;;;24.70;22.33;;;0.20;99.90;;;;;;5093840;28;20485;-78
2023/12/17 02:55:09;;;;;;;23.70;21.47;;;0.30;99.90;;;;;;5092536;28;20480;-78
2023/12/17 02:57:37;;;;;;;24.07;21.77;;;0.20;99.90;;;;;;5093819;28;20450;-78
2023/12/17 03:00:05;;;;;;;22.67;20.67;;;0.20;99.90;;;;;;5093277;28;20903;-78
2023/12/17 03:02:31;;;;;;;24.53;22.37;;;0.20;99.90;;;;;;5092449;28;21018;-77
2023/12/17 03:04:58;;;;;;;23.90;21.80;;;0.30;99.90;;;;;;5093302;28;20439;-78
2023/12/17 03:07:25;;;;;;;24.00;21.50;;;0.20;99.90;;;;;;5092218;28;20446;-78
2023/12/17 03:09:54;;;;;;;24.63;22.53;;;0.20;99.90;;;;;;5093020;28;20531;-78
2023/12/17 03:12:21;;;;;;;25.60;23.30;;;0.30;99.90;;;;;;5093391;28;20480;-78
2023/12/17 03:14:49;;;;;;;22.53;20.53;;;0.20;99.90;;;;;;5093443;28;20445;-78
2023/12/17 03:17:16;;;;;;;24.97;22.47;;;0.10;99.90;;;;;;5118641;27;21033;-77
2023/12/17 03:19:42;;;;;;;24.80;22.60;;;0.10;99.90;;;;;;5091374;28;20453;-78
2023/12/17 03:22:09;;;;;;;24.67;22.47;;;0.10;99.90;;;;;;5092234;28;20492;-78
2023/12/17 03:24:36;;;;;;;24.63;22.43;;;0.10;99.90;;;;;;5093082;28;20431;-78
2023/12/17 03:27:03;;;;;;;24.53;22.33;;;0.00;99.90;;;;;;5091960;28;20486;-78
2023/12/17 03:29:30;;;;;;;23.03;20.93;;;0.00;99.90;;;;;;5084985;28;20463;-78
2023/12/17 03:31:59;;;;;;;23.10;21.00;;;0.00;99.90;;;;;;5091706;28;20519;-78
2023/12/17 03:34:26;;;;;;;23.47;21.47;;;0.00;99.90;;;;;;5092220;28;20559;-78
2023/12/17 03:36:53;;;;;;;24.67;22.47;;;0.00;99.90;;;;;;5091444;28;20874;-78
2023/12/17 03:39:20;;;;;;;23.73;21.73;;;0.00;99.90;;;;;;5092258;28;20882;-78
2023/12/17 03:41:47;;;;;;;23.83;21.77;;;0.00;99.90;;;;;;5092874;28;20904;-78
2023/12/17 03:44:13;;;;;;;23.10;21.10;;;0.00;99.90;;;;;;5092846;28;20493;-78
2023/12/17 03:46:40;;;;;;;22.73;20.50;;;0.00;99.90;;;;;;5092539;28;21006;-78
2023/12/17 03:49:07;;;;;;;23.20;21.20;;;0.00;99.90;;;;;;5092303;28;20470;-78
2023/12/17 03:51:34;;;;;;;24.03;22.00;;;0.00;99.90;;;;;;5125573;27;20459;-78
2023/12/17 03:54:01;;;;;;;23.97;22.00;;;0.10;99.90;;;;;;5091305;28;20500;-78
2023/12/17 03:56:29;;;;;;;23.27;21.37;;;0.10;99.90;;;;;;5091428;28;20893;-78
2023/12/17 03:58:56;;;;;;;24.47;22.30;;;0.10;99.90;;;;;;5090593;28;20459;-78
2023/12/17 04:01:23;;;;;;;23.97;21.93;;;0.10;99.90;;;;;;5091689;28;20581;-78
2023/12/17 04:03:49;;;;;;;23.40;21.20;;;0.20;99.90;;;;;;5090219;28;20788;-78
2023/12/17 04:06:18;;;;;;;23.87;21.97;;;0.10;99.90;;;;;;5091177;28;20549;-78
2023/12/17 04:08:45;;;;;;;22.70;20.77;;;0.10;99.90;;;;;;5089915;28;20908;-78
2023/12/17 04:11:12;;;;;;;22.97;21.17;;;0.10;99.90;;;;;;5091153;28;20451;-78
2023/12/17 04:13:38;;;;;;;23.67;21.67;;;0.10;99.90;;;;;;5117065;27;21085;-78
2023/12/17 04:16:06;;;;;;;23.43;21.50;;;0.20;99.90;;;;;;5091131;28;20876;-77
2023/12/17 04:18:32;;;;;;;23.43;21.43;;;0.10;99.90;;;;;;5092380;28;20853;-79
2023/12/17 04:21:01;;;;;;;24.20;21.83;;;0.10;99.90;;;;;;5107772;27;20470;-83
2023/12/17 04:23:29;;;;;;;23.57;21.67;;;0.10;99.90;;;;;;5092039;28;20458;-81
2023/12/17 04:25:56;;;;;;;24.00;21.87;;;0.10;99.90;;;;;;5088267;28;20544;-79
2023/12/17 04:28:23;;;;;;;23.77;21.67;;;0.10;99.90;;;;;;5086709;28;20443;-79
2023/12/17 04:30:49;;;;;;;23.70;21.60;;;0.00;99.90;;;;;;5092072;28;20508;-79
2023/12/17 04:33:16;;;;;;;23.80;21.83;;;0.00;99.90;;;;;;5092318;28;20478;-79
2023/12/17 04:35:43;;;;;;;23.20;21.20;;;0.00;99.90;;;;;;5090880;28;20454;-78
2023/12/17 04:38:10;;;;;;;23.13;21.07;;;0.10;99.90;;;;;;5092114;28;20431;-79
2023/12/17 04:40:39;;;;;;;23.40;21.43;;;0.10;99.90;;;;;;5090504;28;20492;-77
2023/12/17 04:43:05;;;;;;;23.77;21.83;;;0.10;99.90;;;;;;5088065;28;20443;-78
2023/12/17 04:45:32;;;;;;;24.23;22.13;;;0.10;99.90;;;;;;5090575;28;20486;-79
2023/12/17 04:47:59;;;;;;;23.33;21.33;;;0.10;99.90;;;;;;5088777;28;20453;-79
2023/12/17 04:50:26;;;;;;;22.97;21.17;;;0.10;99.90;;;;;;5090353;28;20473;-79
2023/12/17 04:52:53;;;;;;;23.43;21.23;;;0.10;99.90;;;;;;5085899;28;20477;-79
2023/12/17 04:55:20;;;;;;;22.40;20.50;;;0.10;99.90;;;;;;5086101;28;20467;-78
2023/12/17 04:57:48;;;;;;;23.63;21.60;;;0.10;99.90;;;;;;5090612;28;20966;-78
2023/12/17 05:00:15;;;;;;;24.43;22.33;;;0.10;99.90;;;;;;5084855;28;20463;-79
2023/12/17 05:02:42;;;;;;;23.00;21.17;;;0.10;99.90;;;;;;5087490;28;20451;-78
2023/12/17 05:05:09;;;;;;;22.90;20.97;;;0.10;99.90;;;;;;5090859;28;20450;-78
2023/12/17 05:07:36;;;;;;;23.47;21.57;;;0.10;99.90;;;;;;5090436;28;20516;-78
2023/12/17 05:10:03;;;;;;;23.40;21.40;;;0.00;99.90;;;;;;5089496;28;20541;-79
2023/12/17 05:12:29;;;;;;;23.23;21.43;;;0.10;99.90;;;;;;5091591;28;20481;-78
2023/12/17 05:14:58;;;;;;;23.63;21.50;;;0.00;99.90;;;;;;5091414;28;20465;-78
2023/12/17 05:17:24;;;;;;;23.67;21.60;;;0.00;99.90;;;;;;5090364;28;20450;-78
2023/12/17 05:19:51;;;;;;;22.57;20.80;;;-0.10;99.90;;;;;;5091197;28;20465;-79
2023/12/17 05:22:18;;;;;;;23.13;21.17;;;-0.10;99.90;;;;;;5085672;28;20504;-78
2023/12/17 05:24:45;;;;;;;22.90;21.00;;;-0.10;99.90;;;;;;5088977;28;20862;-78
2023/12/17 05:27:12;;;;;;;23.30;21.40;;;-0.10;99.90;;;;;;5091774;28;20961;-79
2023/12/17 05:29:38;;;;;;;22.93;21.00;;;0.00;99.90;;;;;;5091234;28;20513;-78
2023/12/17 05:32:07;;;;;;;22.40;20.60;;;-0.10;99.90;;;;;;5091864;28;20438;-79
2023/12/17 05:34:34;;;;;;;23.13;21.20;;;0.00;99.90;;;;;;5090693;28;20466;-77
2023/12/17 05:37:00;;;;;;;22.63;20.73;;;0.00;99.90;;;;;;5091811;28;20507;-79
2023/12/17 05:39:27;;;;;;;21.77;19.90;;;0.00;99.90;;;;;;5091525;28;20511;-83
2023/12/17 05:42:22;;;;;;;22.40;20.60;;;0.10;99.90;;;;;;5090799;28;20503;-80
2023/12/17 05:48:16;;;;;;;22.40;20.43;;;0.10;99.90;;;;;;5082826;28;20437;-80
2023/12/17 05:50:46;;;;;;;22.97;20.97;;;0.10;99.90;;;;;;5091789;28;20470;-82
2023/12/17 05:53:13;;;;;;;21.83;20.07;;;0.10;99.90;;;;;;5090137;28;20472;-80
2023/12/17 05:55:40;;;;;;;21.43;19.77;;;0.10;99.90;;;;;;5091353;28;20864;-81
2023/12/17 05:58:09;;;;;;;23.73;21.73;;;0.10;99.90;;;;;;5093631;28;20521;-85
2023/12/17 06:03:39;;;;;;;22.23;20.13;;;0.20;99.90;;;;;;5087617;28;20428;-84
2023/12/17 06:06:07;;;;;;;21.20;19.60;;;0.20;99.90;;;;;;5094450;28;20447;-84
2023/12/17 06:08:46;;;;;;;21.80;20.13;;;0.10;99.90;;;;;;5093858;28;20435;-81
2023/12/17 06:11:16;;;;;;;21.63;19.83;;;0.10;99.90;;;;;;5087292;28;20427;-82
2023/12/17 06:13:55;;;;;;;22.37;20.57;;;0.10;99.90;;;;;;5094071;28;20468;-85
2023/12/17 06:16:22;;;;;;;22.00;20.30;;;0.20;99.90;;;;;;5095594;28;20469;-84
2023/12/17 06:19:51;;;;;;;;;;;;;;;;;;;;;
2023/12/17 06:23:11;;;;;;;21.83;20.03;;;0.10;99.90;;;;;;5092143;28;20511;-82
2023/12/17 06:25:49;;;;;;;21.83;20.10;;;0.10;99.90;;;;;;5091664;28;20451;-85
2023/12/17 06:28:17;;;;;;;21.30;19.70;;;0.10;99.90;;;;;;5122473;27;20949;-84
2023/12/17 06:30:44;;;;;;;21.23;19.60;;;0.10;99.90;;;;;;5093443;28;20466;-84
2023/12/17 06:33:11;;;;;;;22.43;20.73;;;0.10;99.90;;;;;;5093634;28;20475;-84
2023/12/17 06:35:38;;;;;;;22.13;20.47;;;0.10;99.90;;;;;;5095294;28;20440;-84
2023/12/17 06:38:06;;;;;;;21.83;20.23;;;0.10;99.90;;;;;;5093338;28;20439;-84
2023/12/17 06:40:33;;;;;;;20.90;19.33;;;0.10;99.90;;;;;;5093414;28;20460;-84
2023/12/17 06:43:00;;;;;;;20.73;19.13;;;0.10;99.90;;;;;;5087716;28;20452;-84
2023/12/17 06:45:27;;;;;;;21.87;19.93;;;0.10;99.90;;;;;;5093913;28;20459;-84
2023/12/17 06:47:54;;;;;;;22.80;21.00;;;0.10;99.90;;;;;;5093558;28;20952;-83
2023/12/17 06:50:48;;;;;;;22.83;20.93;;;0.10;99.90;;;;;;5092938;28;20494;-83
2023/12/17 06:53:17;;;;;;;23.03;21.03;;;0.10;99.90;;;;;;5094723;28;20468;-84
2023/12/17 06:55:44;;;;;;;22.63;20.93;;;0.10;99.90;;;;;;5093385;28;20833;-85
2023/12/17 06:58:12;;;;;;;23.40;21.50;;;0.00;99.90;;;;;;5120774;27;20533;-84
2023/12/17 07:01:07;;;;;;;23.47;21.57;;;0.10;99.90;;;;;;5092999;28;20985;-82
2023/12/17 07:04:31;;;;;;;22.70;20.90;;;0.00;99.90;;;;;;5011696;28;20465;-83
2023/12/17 07:07:38;;;;;;;21.90;20.23;;;0.00;99.90;;;;;;4988396;28;20470;-82
2023/12/17 07:14:40;;;;;;;23.30;21.10;;;-0.10;99.90;;;;;;5020238;28;20544;-81
2023/12/17 07:17:08;;;;;;;22.63;20.73;;;-0.10;99.90;;;;;;5041506;28;20450;-79
2023/12/17 07:19:35;;;;;;;23.40;21.10;;;-0.10;99.90;;;;;;5088100;28;20532;-79
2023/12/17 07:22:02;;;;;;;22.77;20.97;;;-0.10;99.90;;;;;;5093315;28;20435;-79
2023/12/17 07:24:28;;;;;;;23.60;21.53;;;-0.10;99.90;;;;;;5093170;28;20435;-79
2023/12/17 07:26:55;;;;;;;23.10;21.13;;;-0.10;99.90;;;;;;5093268;28;20483;-78
2023/12/17 07:29:22;;;;;;;22.73;20.83;;;-0.10;99.90;;;;;;5091616;28;20471;-79
2023/12/17 07:31:49;;;;;;;21.63;19.93;;;0.00;99.90;;;;;;5093398;28;20459;-79
2023/12/17 07:34:17;;;;;;;23.70;21.67;;;0.00;99.90;;;;;;5092426;28;21014;-78
2023/12/17 07:36:44;;;;;;;23.03;21.17;;;0.00;99.90;;;;;;5093640;28;20455;-79
2023/12/17 07:39:10;;;;;;;22.90;21.00;;;0.00;99.90;;;;;;5085068;28;20516;-79
2023/12/17 07:45:04;;;;;;;22.50;20.73;;;0.00;99.90;;;;;;5089474;28;20444;-78
2023/12/17 07:47:32;;;;;;;22.87;21.13;;;0.10;99.90;;;;;;5092076;28;20198;-78
2023/12/17 07:50:00;;;;;;;22.33;20.53;;;0.10;99.90;;;;;;5092473;28;20283;-78
2023/12/17 07:52:27;;;;;;;23.03;21.20;;;0.20;99.90;;;;;;5091302;28;20463;-83
2023/12/17 07:54:55;;;;;;;22.57;20.90;;;0.20;99.90;;;;;;5095892;28;20213;-83
2023/12/17 07:57:21;;;;;;;23.03;21.23;;;0.20;99.90;;;;;;5094845;28;20202;-81
2023/12/17 07:59:50;;;;;;;23.37;21.47;;;0.30;99.90;;;;;;5091784;28;20498;-81
2023/12/17 08:02:17;;;;;;;23.20;21.20;;;0.30;99.90;;;;;;5125810;27;20443;-82
2023/12/17 08:04:44;;;;;;;22.47;20.67;;;0.50;99.90;;;;;;5091994;28;20913;-79
2023/12/17 08:07:24;;;;;;;22.17;20.37;;;0.60;99.90;;;;;;5126324;27;20504;-82
2023/12/17 08:09:51;;;;;;;23.13;21.42;;;0.70;99.90;;;;;;5089001;28;20481;-80
2023/12/17 08:12:19;;;;;;;21.87;20.20;;;0.90;99.90;;;;;;5094013;28;20622;-83
2023/12/17 08:14:46;;;;;;;20.60;18.93;;;1.00;99.90;;;;;;5086871;28;20544;-82
2023/12/17 08:17:12;;;;;;;20.60;19.00;;;1.10;99.90;;;;;;5091233;28;20204;-82
2023/12/17 08:19:48;;;;;;;20.43;18.73;;;1.20;99.90;;;;;;5093846;28;20252;-83
2023/12/17 08:22:20;;;;;;;20.27;18.67;;;1.40;99.90;;;;;;5092704;28;20229;-85
2023/12/17 08:24:46;;;;;;;21.57;19.80;;;1.50;99.90;;;;;;5095206;28;20251;-79
2023/12/17 08:27:14;;;;;;;20.67;18.73;;;1.60;99.90;;;;;;5095572;28;20198;-79
2023/12/17 08:29:47;;;;;;;21.27;19.67;;;1.80;99.90;;;;;;5113722;27;20313;-78
2023/12/17 08:32:14;;;;;;;22.73;20.88;;;1.90;99.90;;;;;;5093055;28;20527;-79
2023/12/17 08:34:41;;;;;;;21.00;19.50;;;2.20;99.90;;;;;;5094796;28;20591;-83
2023/12/17 08:37:08;;;;;;;19.10;17.67;;;2.30;99.90;;;;;;5092304;28;20194;-82
2023/12/17 08:39:40;;;;;;;18.33;16.92;;;2.40;99.90;;;;;;5116780;27;20431;-79
2023/12/17 08:42:07;;;;;;;21.07;19.47;;;2.60;99.90;;;;;;5093730;28;20201;-82
2023/12/17 08:44:35;;;;;;;19.70;18.20;;;2.70;99.90;;;;;;5094738;28;20213;-83
2023/12/17 08:47:02;;;;;;;17.50;16.00;;;2.80;99.90;;;;;;5092299;28;20212;-80
2023/12/17 08:49:44;;;;;;;16.20;14.90;;;2.90;99.90;;;;;;5089013;28;20720;-80
2023/12/17 08:52:11;;;;;;;16.93;15.67;;;3.00;99.90;;;;;;5089034;28;20212;-79
2023/12/17 08:54:40;;;;;;;17.93;16.73;;;3.10;99.90;;;;;;5088616;28;20301;-81
2023/12/17 08:57:07;;;;;;;18.43;17.13;;;3.10;99.90;;;;;;5094618;28;20211;-78
2023/12/17 08:59:34;;;;;;;18.47;17.07;;;3.20;99.90;;;;;;5093625;28;20218;-78
2023/12/17 09:02:00;;;;;;;18.03;16.63;;;3.20;99.90;;;;;;5093202;28;20221;-78
2023/12/17 09:04:27;;;;;;;17.80;16.60;;;3.20;99.90;;;;;;5092095;28;20278;-78
2023/12/17 09:06:54;;;;;;;18.03;16.77;;;3.20;99.90;;;;;;5093192;28;20190;-76
2023/12/17 09:09:21;;;;;;;17.90;16.63;;;3.10;99.90;;;;;;5092262;28;20265;-78
2023/12/17 09:11:49;;;;;;;17.27;16.07;;;3.10;99.90;;;;;;5092415;28;20194;-78
2023/12/17 09:14:15;;;;;;;17.87;16.67;;;3.10;99.90;;;;;;5093169;28;20218;-82
2023/12/17 09:16:42;;;;;;;17.93;16.63;;;3.10;99.90;;;;;;5088400;28;20203;-77
2023/12/17 09:19:09;;;;;;;17.53;16.33;;;3.10;99.90;;;;;;5105610;28;20579;-77
2023/12/17 09:21:36;;;;;;;17.50;16.20;;;3.10;99.90;;;;;;5090904;28;20244;-77
2023/12/17 09:24:04;;;;;;;17.00;15.80;;;3.00;99.90;;;;;;5091098;28;20194;-77
2023/12/17 09:26:31;;;;;;;16.30;15.20;;;3.10;99.90;;;;;;5092782;28;20244;-77
2023/12/17 09:28:59;;;;;;;17.23;15.93;;;3.10;99.90;;;;;;5092905;28;20292;-77
2023/12/17 09:31:26;;;;;;;17.80;16.40;;;3.00;99.90;;;;;;5093089;28;20194;-78
2023/12/17 09:33:53;;;;;;;17.63;16.33;;;3.10;99.90;;;;;;5095442;28;20655;-78
2023/12/17 09:36:19;;;;;;;16.73;15.60;;;3.10;99.90;;;;;;5095411;28;20204;-77
2023/12/17 09:38:46;;;;;;;19.07;17.50;;;3.10;99.90;;;;;;5089278;28;20193;-78
2023/12/17 09:41:14;;;;;;;17.63;16.33;;;3.10;99.90;;;;;;5095368;28;20198;-77
2023/12/17 09:43:43;;;;;;;17.57;16.23;;;3.10;99.90;;;;;;5094972;28;20222;-78
2023/12/17 09:46:11;;;;;;;17.30;15.90;;;3.20;99.90;;;;;;5096257;28;20584;-78
2023/12/17 09:48:38;;;;;;;17.17;15.93;;;3.30;99.90;;;;;;5095293;28;20247;-78
2023/12/17 09:51:05;;;;;;;17.33;16.03;;;3.30;99.90;;;;;;5120443;27;20733;-80
2023/12/17 09:53:59;;;;;;;17.70;16.33;;;3.40;99.90;;;;;;5128667;27;20205;-80
2023/12/17 09:56:25;;;;;;;18.00;16.60;;;3.40;99.90;;;;;;5096563;28;20255;-82
2023/12/17 09:58:53;;;;;;;17.53;16.23;;;3.40;99.90;;;;;;5096319;28;20202;-81
2023/12/17 10:01:21;;;;;;;17.70;16.30;;;3.40;99.90;;;;;;5096716;28;20289;-81
2023/12/17 10:03:49;;;;;;;17.70;16.37;;;3.50;99.90;;;;;;5094797;28;20214;-82
2023/12/17 10:06:19;;;;;;;17.37;16.17;;;3.50;99.90;;;;;;5123578;27;20222;-81
2023/12/17 10:08:47;;;;;;;17.20;16.00;;;3.60;99.90;;;;;;5094868;28;20191;-82
2023/12/17 10:11:14;;;;;;;17.40;16.20;;;3.60;99.90;;;;;;5096197;28;20251;-82
2023/12/17 10:13:44;;;;;;;17.10;15.90;;;3.60;99.90;;;;;;5094685;28;20194;-80
2023/12/17 10:16:11;;;;;;;16.83;15.53;;;3.70;99.90;;;;;;5095493;28;20202;-83
2023/12/17 10:18:39;;;;;;;17.20;15.90;;;3.80;99.90;;;;;;5095970;28;20201;-81
2023/12/17 10:21:09;;;;;;;16.40;15.20;;;3.80;99.90;;;;;;5093290;28;20193;-81
2023/12/17 10:23:56;;;;;;;16.27;15.10;;;3.80;99.90;;;;;;5092017;28;20202;-82
2023/12/17 10:26:23;;;;;;;17.23;15.97;;;3.90;99.90;;;;;;5091351;28;20197;-82
2023/12/17 10:28:53;;;;;;;16.97;15.77;;;4.00;99.90;;;;;;5095890;28;20239;-80
2023/12/17 10:31:44;;;;;;;18.10;16.70;;;4.00;99.90;;;;;;5095220;28;20202;-81
2023/12/17 10:34:19;;;;;;;17.13;15.87;;;4.00;99.90;;;;;;5093592;28;20244;-82
2023/12/17 10:36:56;;;;;;;16.77;15.63;;;4.10;99.90;;;;;;5095182;28;20189;-83
2023/12/17 10:42:55;;;;;;;17.00;15.70;;;4.10;99.90;;;;;;5027101;28;20284;-82
2023/12/17 10:48:43;;;;;;;16.73;15.63;;;4.20;99.90;;;;;;5023049;28;20213;-82
2023/12/17 10:51:26;;;;;;;17.23;16.03;;;4.30;99.90;;;;;;5029764;28;20200;-82
2023/12/17 10:54:06;;;;;;;;;;;;;;;;;;;;;
2023/12/17 10:56:35;;;;;;;16.07;14.97;;;4.30;99.90;;;;;;5032915;28;20226;-82
2023/12/17 10:59:05;;;;;;;17.13;15.97;;;4.40;99.90;;;;;;5030518;28;20228;-82
2023/12/17 11:01:34;;;;;;;18.00;16.80;;;4.40;99.90;;;;;;5027940;28;20192;-82
2023/12/17 11:04:01;;;;;;;15.60;14.40;;;4.50;99.90;;;;;;5031704;28;20214;-82
2023/12/17 11:06:30;;;;;;;16.00;14.80;;;4.60;99.90;;;;;;5028581;28;20192;-82
2023/12/17 11:08:57;;;;;;;15.37;14.23;;;4.60;99.90;;;;;;5031878;28;20212;-81
2023/12/17 11:11:24;;;;;;;15.37;14.27;;;4.60;99.90;;;;;;5032372;28;20258;-81
2023/12/17 11:13:51;;;;;;;15.50;14.40;;;4.60;99.90;;;;;;5034566;28;20192;-80
2023/12/17 11:16:22;;;;;;;15.20;14.10;;;4.70;99.90;;;;;;5031445;28;20303;-82
2023/12/17 11:18:49;;;;;;;15.10;14.10;;;4.80;99.90;;;;;;5032582;28;20224;-81
2023/12/17 11:21:20;;;;;;;14.63;13.63;;;4.80;99.90;;;;;;5032115;28;20206;-82
2023/12/17 11:23:48;;;;;;;14.87;13.73;;;4.80;99.90;;;;;;5031875;28;20201;-79
2023/12/17 11:26:17;;;;;;;15.33;14.23;;;4.90;99.90;;;;;;5033166;28;20562;-79
2023/12/17 11:28:45;;;;;;;15.07;14.07;;;4.90;99.90;;;;;;5030718;28;20262;-83
2023/12/17 11:31:12;;;;;;;14.87;13.87;;;5.00;99.90;;;;;;5032375;28;20274;-83
2023/12/17 11:33:40;;;;;;;14.97;13.97;;;5.00;99.90;;;;;;5033491;28;20205;-83
2023/12/17 11:36:08;;;;;;;14.90;13.90;;;5.10;99.90;;;;;;5033696;28;20279;-83
2023/12/17 11:38:35;;;;;;;14.83;13.80;;;5.10;99.90;;;;;;5033245;28;20726;-83
2023/12/17 11:41:04;;;;;;;14.87;13.77;;;5.10;99.90;;;;;;5032882;28;20297;-83
2023/12/17 11:43:31;;;;;;;14.87;13.90;;;5.20;99.90;;;;;;5033396;28;20208;-83
2023/12/17 11:45:58;;;;;;;13.93;13.07;;;5.20;99.90;;;;;;5033798;28;20239;-83
2023/12/17 11:48:26;;;;;;;13.97;13.07;;;5.30;99.90;;;;;;5032440;28;20205;-82
2023/12/17 11:50:56;;;;;;;14.03;13.13;;;5.30;99.90;;;;;;5033598;28;20310;-84
2023/12/17 11:53:24;;;;;;;14.30;13.40;;;5.40;99.90;;;;;;5039233;28;20197;-83
2023/12/17 11:55:52;;;;;;;14.90;13.90;;;5.40;99.90;;;;;;5032846;28;20276;-83
2023/12/17 11:58:21;;;;;;;14.70;13.70;;;5.40;99.90;;;;;;5033600;28;20208;-83
2023/12/17 12:01:09;;;;;;;14.33;13.43;;;5.50;99.90;;;;;;5034072;28;20213;-83
2023/12/17 12:03:37;;;;;;;14.47;13.57;;;5.50;99.90;;;;;;5033508;28;20202;-83
2023/12/17 12:06:08;;;;;;;14.90;14.00;;;5.60;99.90;;;;;;5033980;28;20198;-79
2023/12/17 12:08:35;;;;;;;14.03;13.23;;;5.60;99.90;;;;;;5033305;28;20202;-78
2023/12/17 12:11:03;;;;;;;14.47;13.57;;;5.70;99.90;;;;;;5034716;28;20668;-84
2023/12/17 12:13:36;;;;;;;15.30;14.10;;;5.70;99.90;;;;;;5033856;28;20209;-84
2023/12/17 12:16:04;;;;;;;14.17;13.27;;;5.70;99.90;;;;;;5034305;28;20207;-83
2023/12/17 12:18:31;;;;;;;14.23;13.27;;;5.70;99.90;;;;;;5032563;28;20213;-83
2023/12/17 12:20:58;;;;;;;14.73;13.73;;;5.80;99.90;;;;;;5032365;28;20210;-83
2023/12/17 12:23:25;;;;;;;14.37;13.47;;;5.80;99.90;;;;;;5034493;28;20292;-83
2023/12/17 12:25:57;;;;;;;14.67;13.77;;;5.90;99.90;;;;;;5033269;28;20249;-82
2023/12/17 12:28:25;;;;;;;15.73;14.73;;;5.90;99.90;;;;;;5025269;28;20269;-81
2023/12/17 12:30:53;;;;;;;15.70;14.70;;;5.90;99.90;;;;;;5032821;28;20230;-78
2023/12/17 12:33:20;;;;;;;15.63;14.63;;;6.00;99.90;;;;;;5031993;28;20819;-80
2023/12/17 12:35:48;;;;;;;15.53;14.53;;;6.00;99.90;;;;;;5033829;28;20243;-83
2023/12/17 12:38:20;;;;;;;15.67;14.67;;;6.00;99.90;;;;;;5028797;28;20754;-83
2023/12/17 12:40:47;;;;;;;15.50;14.50;;;6.10;99.90;;;;;;5031901;28;20233;-83
2023/12/17 12:43:16;;;;;;;15.47;14.57;;;6.10;99.90;;;;;;5028414;28;20200;-83
2023/12/17 12:45:43;;;;;;;15.20;14.23;;;6.10;99.90;;;;;;5034174;28;20234;-79
2023/12/17 12:48:21;;;;;;;16.03;15.03;;;6.20;99.90;;;;;;5028044;28;20666;-79
2023/12/17 12:50:48;;;;;;;15.27;14.30;;;6.20;99.90;;;;;;5024953;28;20232;-78
2023/12/17 12:53:17;;;;;;;15.67;14.67;;;6.20;99.90;;;;;;5032601;28;20592;-85
2023/12/17 12:55:44;;;;;;;15.10;14.10;;;6.20;99.90;;;;;;5029963;28;20216;-79
2023/12/17 12:58:10;;;;;;;15.63;14.67;;;6.30;99.90;;;;;;5034992;28;20249;-79
2023/12/17 13:00:37;;;;;;;15.67;14.57;;;6.30;99.90;;;;;;5032689;28;20229;-79
2023/12/17 13:03:04;;;;;;;16.13;15.03;;;6.30;99.90;;;;;;5033652;28;20639;-79
2023/12/17 13:05:33;;;;;;;15.83;14.80;;;6.30;99.90;;;;;;5035927;28;20228;-78
2023/12/17 13:08:00;;;;;;;16.43;15.33;;;6.30;99.90;;;;;;5037860;28;20209;-78